sensor_id;sensor_type;location;lat;lon;timestamp;P1;durP1;ratioP1;P2;durP2;ratioP2
45274;SDS011;31019;43.780;25.948;2022-11-15T00:00:31;92.88;;;85.72;;
45274;SDS011;31019;43.780;25.948;2022-11-15T00:02:58;92.32;;;85.43;;
45274;SDS011;31019;43.780;25.948;2022-11-15T00:05:27;90.90;;;83.95;;
45274;SDS011;31019;43.780;25.948;2022-11-15T00:07:57;90.35;;;83.38;;
45274;SDS011;31019;43.780;25.948;2022-11-15T00:10:24;94.07;;;87.18;;
45274;SDS011;31019;43.780;25.948;2022-11-15T00:12:51;89.95;;;82.65;;
45274;SDS011;31019;43.780;25.948;2022-11-15T00:15:18;148.05;;;138.13;;
45274;SDS011;31019;43.780;25.948;2022-11-15T00:17:48;142.50;;;132.77;;
45274;SDS011;31019;43.780;25.948;2022-11-15T00:20:15;143.15;;;133.80;;
45274;SDS011;31019;43.780;25.948;2022-11-15T00:22:45;141.63;;;132.05;;
45274;SDS011;31019;43.780;25.948;2022-11-15T00:25:14;106.63;;;98.82;;
45274;SDS011;31019;43.780;25.948;2022-11-15T00:27:54;126.88;;;118.28;;
45274;SDS011;31019;43.780;25.948;2022-11-15T00:30:21;127.28;;;118.75;;
45274;SDS011;31019;43.780;25.948;2022-11-15T00:32:48;141.88;;;132.40;;
45274;SDS011;31019;43.780;25.948;2022-11-15T00:35:16;153.15;;;143.07;;
45274;SDS011;31019;43.780;25.948;2022-11-15T00:37:43;154.45;;;144.23;;
45274;SDS011;31019;43.780;25.948;2022-11-15T00:40:10;146.02;;;136.00;;
45274;SDS011;31019;43.780;25.948;2022-11-15T00:42:40;82.35;;;75.68;;
45274;SDS011;31019;43.780;25.948;2022-11-15T00:45:09;140.05;;;130.48;;
45274;SDS011;31019;43.780;25.948;2022-11-15T00:47:43;140.65;;;130.98;;
45274;SDS011;31019;43.780;25.948;2022-11-15T00:50:11;147.23;;;137.13;;
45274;SDS011;31019;43.780;25.948;2022-11-15T00:52:38;145.93;;;135.73;;
45274;SDS011;31019;43.780;25.948;2022-11-15T00:55:05;144.90;;;134.80;;
45274;SDS011;31019;43.780;25.948;2022-11-15T00:57:32;159.00;;;148.15;;
45274;SDS011;31019;43.780;25.948;2022-11-15T01:00:00;145.40;;;135.48;;
45274;SDS011;31019;43.780;25.948;2022-11-15T01:02:48;98.25;;;90.88;;
45274;SDS011;31019;43.780;25.948;2022-11-15T01:05:14;91.82;;;84.82;;
45274;SDS011;31019;43.780;25.948;2022-11-15T01:07:41;87.90;;;81.15;;
45274;SDS011;31019;43.780;25.948;2022-11-15T01:10:09;145.63;;;135.25;;
45274;SDS011;31019;43.780;25.948;2022-11-15T01:12:36;143.93;;;134.07;;
45274;SDS011;31019;43.780;25.948;2022-11-15T01:15:06;140.15;;;130.13;;
45274;SDS011;31019;43.780;25.948;2022-11-15T01:17:35;133.65;;;124.38;;
45274;SDS011;31019;43.780;25.948;2022-11-15T01:20:02;128.02;;;119.05;;
45274;SDS011;31019;43.780;25.948;2022-11-15T01:22:29;132.27;;;123.05;;
45274;SDS011;31019;43.780;25.948;2022-11-15T01:24:56;130.60;;;121.57;;
45274;SDS011;31019;43.780;25.948;2022-11-15T01:27:23;86.25;;;79.35;;
45274;SDS011;31019;43.780;25.948;2022-11-15T01:29:50;84.05;;;77.55;;
45274;SDS011;31019;43.780;25.948;2022-11-15T01:32:18;74.00;;;68.00;;
45274;SDS011;31019;43.780;25.948;2022-11-15T01:34:46;141.18;;;131.75;;
45274;SDS011;31019;43.780;25.948;2022-11-15T01:37:12;135.40;;;126.03;;
45274;SDS011;31019;43.780;25.948;2022-11-15T01:39:39;121.15;;;112.65;;
45274;SDS011;31019;43.780;25.948;2022-11-15T01:42:09;130.05;;;120.85;;
45274;SDS011;31019;43.780;25.948;2022-11-15T01:44:40;146.75;;;136.85;;
45274;SDS011;31019;43.780;25.948;2022-11-15T01:47:09;138.77;;;129.50;;
45274;SDS011;31019;43.780;25.948;2022-11-15T01:49:41;90.72;;;84.00;;
45274;SDS011;31019;43.780;25.948;2022-11-15T01:52:17;85.32;;;77.93;;
45274;SDS011;31019;43.780;25.948;2022-11-15T01:54:47;88.53;;;80.80;;
45274;SDS011;31019;43.780;25.948;2022-11-15T01:57:16;84.93;;;78.43;;
45274;SDS011;31019;43.780;25.948;2022-11-15T01:59:43;82.68;;;76.13;;
45274;SDS011;31019;43.780;25.948;2022-11-15T02:02:11;85.50;;;79.20;;
45274;SDS011;31019;43.780;25.948;2022-11-15T02:04:42;88.35;;;81.68;;
45274;SDS011;31019;43.780;25.948;2022-11-15T02:07:12;83.72;;;77.68;;
45274;SDS011;31019;43.780;25.948;2022-11-15T02:09:42;82.60;;;76.47;;
45274;SDS011;31019;43.780;25.948;2022-11-15T02:12:10;81.70;;;75.82;;
45274;SDS011;31019;43.780;25.948;2022-11-15T02:14:40;73.47;;;68.00;;
45274;SDS011;31019;43.780;25.948;2022-11-15T02:17:13;72.78;;;67.18;;
45274;SDS011;31019;43.780;25.948;2022-11-15T02:23:04;75.22;;;69.22;;
45274;SDS011;31019;43.780;25.948;2022-11-15T02:25:54;76.20;;;70.30;;
45274;SDS011;31019;43.780;25.948;2022-11-15T02:28:38;76.97;;;70.85;;
45274;SDS011;31019;43.780;25.948;2022-11-15T02:31:17;72.72;;;66.60;;
45274;SDS011;31019;43.780;25.948;2022-11-15T02:33:52;79.63;;;73.45;;
45274;SDS011;31019;43.780;25.948;2022-11-15T02:36:28;80.35;;;73.97;;
45274;SDS011;31019;43.780;25.948;2022-11-15T02:39:05;77.47;;;71.32;;
45274;SDS011;31019;43.780;25.948;2022-11-15T02:41:39;71.85;;;66.25;;
45274;SDS011;31019;43.780;25.948;2022-11-15T02:44:13;80.20;;;74.60;;
45274;SDS011;31019;43.780;25.948;2022-11-15T02:46:48;81.82;;;75.55;;
45274;SDS011;31019;43.780;25.948;2022-11-15T02:49:36;87.28;;;80.82;;
45274;SDS011;31019;43.780;25.948;2022-11-15T02:52:05;77.53;;;71.53;;
45274;SDS011;31019;43.780;25.948;2022-11-15T02:54:33;79.25;;;73.32;;
45274;SDS011;31019;43.780;25.948;2022-11-15T02:57:01;74.68;;;69.15;;
45274;SDS011;31019;43.780;25.948;2022-11-15T02:59:43;74.97;;;68.57;;
45274;SDS011;31019;43.780;25.948;2022-11-15T03:05:01;83.65;;;76.97;;
45274;SDS011;31019;43.780;25.948;2022-11-15T03:07:36;86.65;;;80.03;;
45274;SDS011;31019;43.780;25.948;2022-11-15T03:10:12;83.13;;;76.85;;
45274;SDS011;31019;43.780;25.948;2022-11-15T03:12:45;84.82;;;78.43;;
45274;SDS011;31019;43.780;25.948;2022-11-15T03:15:18;79.38;;;73.32;;
45274;SDS011;31019;43.780;25.948;2022-11-15T03:17:51;70.53;;;64.65;;
45274;SDS011;31019;43.780;25.948;2022-11-15T03:23:03;83.72;;;77.38;;
45274;SDS011;31019;43.780;25.948;2022-11-15T03:25:32;71.88;;;65.97;;
45274;SDS011;31019;43.780;25.948;2022-11-15T03:28:05;72.05;;;66.13;;
45274;SDS011;31019;43.780;25.948;2022-11-15T03:30:34;81.18;;;74.55;;
45274;SDS011;31019;43.780;25.948;2022-11-15T03:33:11;78.45;;;72.07;;
45274;SDS011;31019;43.780;25.948;2022-11-15T03:35:44;80.03;;;73.68;;
45274;SDS011;31019;43.780;25.948;2022-11-15T03:38:14;75.20;;;69.00;;
45274;SDS011;31019;43.780;25.948;2022-11-15T03:40:47;99.78;;;92.50;;
45274;SDS011;31019;43.780;25.948;2022-11-15T03:43:22;100.70;;;93.70;;
45274;SDS011;31019;43.780;25.948;2022-11-15T03:45:57;104.85;;;97.43;;
45274;SDS011;31019;43.780;25.948;2022-11-15T03:48:29;78.22;;;72.18;;
45274;SDS011;31019;43.780;25.948;2022-11-15T03:51:02;80.00;;;74.13;;
45274;SDS011;31019;43.780;25.948;2022-11-15T03:53:30;77.95;;;72.30;;
45274;SDS011;31019;43.780;25.948;2022-11-15T03:55:57;81.30;;;75.32;;
45274;SDS011;31019;43.780;25.948;2022-11-15T03:58:25;76.70;;;70.60;;
45274;SDS011;31019;43.780;25.948;2022-11-15T04:00:52;88.30;;;81.65;;
45274;SDS011;31019;43.780;25.948;2022-11-15T04:03:18;84.70;;;78.22;;
45274;SDS011;31019;43.780;25.948;2022-11-15T04:05:46;83.63;;;76.97;;
45274;SDS011;31019;43.780;25.948;2022-11-15T04:08:13;84.45;;;78.40;;
45274;SDS011;31019;43.780;25.948;2022-11-15T04:10:40;78.95;;;72.97;;
45274;SDS011;31019;43.780;25.948;2022-11-15T04:13:07;88.53;;;82.03;;
45274;SDS011;31019;43.780;25.948;2022-11-15T04:15:33;129.88;;;121.43;;
45274;SDS011;31019;43.780;25.948;2022-11-15T04:18:00;88.15;;;81.93;;
45274;SDS011;31019;43.780;25.948;2022-11-15T04:20:28;77.50;;;71.53;;
45274;SDS011;31019;43.780;25.948;2022-11-15T04:23:15;78.28;;;72.45;;
45274;SDS011;31019;43.780;25.948;2022-11-15T04:26:02;85.15;;;78.88;;
45274;SDS011;31019;43.780;25.948;2022-11-15T04:28:31;105.03;;;97.95;;
45274;SDS011;31019;43.780;25.948;2022-11-15T04:30:58;88.53;;;81.85;;
45274;SDS011;31019;43.780;25.948;2022-11-15T04:33:25;89.82;;;82.88;;
45274;SDS011;31019;43.780;25.948;2022-11-15T04:35:53;82.75;;;75.95;;
45274;SDS011;31019;43.780;25.948;2022-11-15T04:38:38;79.82;;;73.60;;
45274;SDS011;31019;43.780;25.948;2022-11-15T04:41:05;75.20;;;69.15;;
45274;SDS011;31019;43.780;25.948;2022-11-15T04:43:32;70.13;;;64.43;;
45274;SDS011;31019;43.780;25.948;2022-11-15T04:45:58;76.13;;;70.13;;
45274;SDS011;31019;43.780;25.948;2022-11-15T04:48:26;78.90;;;72.97;;
45274;SDS011;31019;43.780;25.948;2022-11-15T04:50:53;77.03;;;71.13;;
45274;SDS011;31019;43.780;25.948;2022-11-15T04:53:20;75.10;;;68.82;;
45274;SDS011;31019;43.780;25.948;2022-11-15T04:55:48;72.57;;;66.82;;
45274;SDS011;31019;43.780;25.948;2022-11-15T04:58:17;72.68;;;67.15;;
45274;SDS011;31019;43.780;25.948;2022-11-15T05:00:43;66.85;;;61.42;;
45274;SDS011;31019;43.780;25.948;2022-11-15T05:03:11;66.43;;;60.80;;
45274;SDS011;31019;43.780;25.948;2022-11-15T05:05:55;69.32;;;63.35;;
45274;SDS011;31019;43.780;25.948;2022-11-15T05:08:23;105.60;;;97.53;;
45274;SDS011;31019;43.780;25.948;2022-11-15T05:10:54;105.15;;;97.20;;
45274;SDS011;31019;43.780;25.948;2022-11-15T05:13:21;90.00;;;83.35;;
45274;SDS011;31019;43.780;25.948;2022-11-15T05:15:48;71.68;;;65.60;;
45274;SDS011;31019;43.780;25.948;2022-11-15T05:18:16;73.25;;;66.38;;
45274;SDS011;31019;43.780;25.948;2022-11-15T05:20:44;72.15;;;65.60;;
45274;SDS011;31019;43.780;25.948;2022-11-15T05:23:11;68.75;;;62.83;;
45274;SDS011;31019;43.780;25.948;2022-11-15T05:25:38;68.18;;;61.80;;
45274;SDS011;31019;43.780;25.948;2022-11-15T05:28:06;67.82;;;61.78;;
45274;SDS011;31019;43.780;25.948;2022-11-15T05:30:33;66.60;;;60.90;;
45274;SDS011;31019;43.780;25.948;2022-11-15T05:33:00;69.93;;;63.90;;
45274;SDS011;31019;43.780;25.948;2022-11-15T05:35:29;70.10;;;64.47;;
45274;SDS011;31019;43.780;25.948;2022-11-15T05:37:59;58.65;;;53.45;;
45274;SDS011;31019;43.780;25.948;2022-11-15T05:40:26;65.75;;;59.47;;
45274;SDS011;31019;43.780;25.948;2022-11-15T05:42:55;64.57;;;59.25;;
45274;SDS011;31019;43.780;25.948;2022-11-15T05:45:25;64.80;;;58.85;;
45274;SDS011;31019;43.780;25.948;2022-11-15T05:47:52;66.50;;;60.45;;
45274;SDS011;31019;43.780;25.948;2022-11-15T05:50:20;64.45;;;58.97;;
45274;SDS011;31019;43.780;25.948;2022-11-15T05:52:47;67.65;;;61.95;;
45274;SDS011;31019;43.780;25.948;2022-11-15T05:55:21;65.35;;;60.30;;
45274;SDS011;31019;43.780;25.948;2022-11-15T05:57:47;67.85;;;62.38;;
45274;SDS011;31019;43.780;25.948;2022-11-15T06:00:14;60.90;;;55.63;;
45274;SDS011;31019;43.780;25.948;2022-11-15T06:02:43;64.82;;;59.22;;
45274;SDS011;31019;43.780;25.948;2022-11-15T06:05:09;64.25;;;58.97;;
45274;SDS011;31019;43.780;25.948;2022-11-15T06:07:36;65.93;;;60.38;;
45274;SDS011;31019;43.780;25.948;2022-11-15T06:10:03;61.80;;;56.88;;
45274;SDS011;31019;43.780;25.948;2022-11-15T06:12:30;73.55;;;67.70;;
45274;SDS011;31019;43.780;25.948;2022-11-15T06:14:57;75.20;;;69.10;;
45274;SDS011;31019;43.780;25.948;2022-11-15T06:17:24;64.85;;;59.75;;
45274;SDS011;31019;43.780;25.948;2022-11-15T06:19:52;66.25;;;60.90;;
45274;SDS011;31019;43.780;25.948;2022-11-15T06:22:19;68.63;;;63.38;;
45274;SDS011;31019;43.780;25.948;2022-11-15T06:24:45;68.05;;;62.67;;
45274;SDS011;31019;43.780;25.948;2022-11-15T06:27:13;64.20;;;59.10;;
45274;SDS011;31019;43.780;25.948;2022-11-15T06:29:42;65.13;;;59.72;;
45274;SDS011;31019;43.780;25.948;2022-11-15T06:32:10;63.95;;;58.05;;
45274;SDS011;31019;43.780;25.948;2022-11-15T06:34:38;62.08;;;56.92;;
45274;SDS011;31019;43.780;25.948;2022-11-15T06:37:06;66.22;;;60.60;;
45274;SDS011;31019;43.780;25.948;2022-11-15T06:39:38;68.75;;;63.08;;
45274;SDS011;31019;43.780;25.948;2022-11-15T06:42:05;68.63;;;62.92;;
45274;SDS011;31019;43.780;25.948;2022-11-15T06:44:31;71.90;;;66.03;;
45274;SDS011;31019;43.780;25.948;2022-11-15T06:46:58;76.78;;;70.93;;
45274;SDS011;31019;43.780;25.948;2022-11-15T06:49:25;87.07;;;80.05;;
45274;SDS011;31019;43.780;25.948;2022-11-15T06:51:52;75.00;;;68.68;;
45274;SDS011;31019;43.780;25.948;2022-11-15T06:56:56;67.93;;;62.00;;
45274;SDS011;31019;43.780;25.948;2022-11-15T06:59:25;67.45;;;61.65;;
45274;SDS011;31019;43.780;25.948;2022-11-15T07:01:53;69.07;;;63.60;;
45274;SDS011;31019;43.780;25.948;2022-11-15T07:04:19;68.22;;;62.35;;
45274;SDS011;31019;43.780;25.948;2022-11-15T07:06:48;72.32;;;66.50;;
45274;SDS011;31019;43.780;25.948;2022-11-15T07:09:15;71.75;;;65.65;;
45274;SDS011;31019;43.780;25.948;2022-11-15T07:11:43;67.95;;;62.15;;
45274;SDS011;31019;43.780;25.948;2022-11-15T07:14:10;64.22;;;59.03;;
45274;SDS011;31019;43.780;25.948;2022-11-15T07:16:37;72.47;;;66.30;;
45274;SDS011;31019;43.780;25.948;2022-11-15T07:19:04;74.70;;;68.18;;
45274;SDS011;31019;43.780;25.948;2022-11-15T07:21:31;63.72;;;58.55;;
45274;SDS011;31019;43.780;25.948;2022-11-15T07:23:59;62.30;;;57.30;;
45274;SDS011;31019;43.780;25.948;2022-11-15T07:26:25;64.03;;;58.75;;
45274;SDS011;31019;43.780;25.948;2022-11-15T07:28:53;60.67;;;56.08;;
45274;SDS011;31019;43.780;25.948;2022-11-15T07:31:20;59.10;;;54.20;;
45274;SDS011;31019;43.780;25.948;2022-11-15T07:33:47;62.28;;;57.17;;
45274;SDS011;31019;43.780;25.948;2022-11-15T07:36:14;76.30;;;70.85;;
45274;SDS011;31019;43.780;25.948;2022-11-15T07:38:40;63.75;;;58.90;;
45274;SDS011;31019;43.780;25.948;2022-11-15T07:41:07;63.75;;;58.72;;
45274;SDS011;31019;43.780;25.948;2022-11-15T07:43:34;69.25;;;63.65;;
45274;SDS011;31019;43.780;25.948;2022-11-15T07:46:05;70.97;;;65.40;;
45274;SDS011;31019;43.780;25.948;2022-11-15T07:48:34;74.03;;;68.63;;
45274;SDS011;31019;43.780;25.948;2022-11-15T07:51:02;68.20;;;62.85;;
45274;SDS011;31019;43.780;25.948;2022-11-15T07:53:37;48.00;;;43.63;;
45274;SDS011;31019;43.780;25.948;2022-11-15T07:56:05;38.03;;;34.67;;
45274;SDS011;31019;43.780;25.948;2022-11-15T07:58:32;38.92;;;35.17;;
45274;SDS011;31019;43.780;25.948;2022-11-15T08:01:01;40.25;;;36.15;;
45274;SDS011;31019;43.780;25.948;2022-11-15T08:03:30;40.55;;;36.50;;
45274;SDS011;31019;43.780;25.948;2022-11-15T08:05:58;40.67;;;36.55;;
45274;SDS011;31019;43.780;25.948;2022-11-15T08:08:26;44.92;;;40.22;;
45274;SDS011;31019;43.780;25.948;2022-11-15T08:10:56;39.97;;;36.13;;
45274;SDS011;31019;43.780;25.948;2022-11-15T08:13:23;42.05;;;38.10;;
45274;SDS011;31019;43.780;25.948;2022-11-15T08:15:50;47.00;;;42.75;;
45274;SDS011;31019;43.780;25.948;2022-11-15T08:18:17;45.97;;;41.67;;
45274;SDS011;31019;43.780;25.948;2022-11-15T08:20:45;45.67;;;41.65;;
45274;SDS011;31019;43.780;25.948;2022-11-15T08:23:12;44.00;;;39.83;;
45274;SDS011;31019;43.780;25.948;2022-11-15T08:25:39;45.38;;;40.92;;
45274;SDS011;31019;43.780;25.948;2022-11-15T08:28:06;44.30;;;40.10;;
45274;SDS011;31019;43.780;25.948;2022-11-15T08:30:36;44.83;;;40.75;;
45274;SDS011;31019;43.780;25.948;2022-11-15T08:33:09;45.35;;;41.53;;
45274;SDS011;31019;43.780;25.948;2022-11-15T08:38:09;43.05;;;39.30;;
45274;SDS011;31019;43.780;25.948;2022-11-15T08:40:37;44.10;;;40.17;;
45274;SDS011;31019;43.780;25.948;2022-11-15T08:43:04;43.75;;;40.00;;
45274;SDS011;31019;43.780;25.948;2022-11-15T08:45:42;46.55;;;42.42;;
45274;SDS011;31019;43.780;25.948;2022-11-15T08:48:10;46.85;;;42.85;;
45274;SDS011;31019;43.780;25.948;2022-11-15T08:50:43;45.22;;;40.97;;
45274;SDS011;31019;43.780;25.948;2022-11-15T08:53:18;41.45;;;37.33;;
45274;SDS011;31019;43.780;25.948;2022-11-15T08:55:51;40.83;;;37.17;;
45274;SDS011;31019;43.780;25.948;2022-11-15T08:58:20;39.72;;;36.22;;
45274;SDS011;31019;43.780;25.948;2022-11-15T09:00:47;52.35;;;46.92;;
45274;SDS011;31019;43.780;25.948;2022-11-15T09:03:13;40.78;;;37.00;;
45274;SDS011;31019;43.780;25.948;2022-11-15T09:05:41;41.10;;;37.40;;
45274;SDS011;31019;43.780;25.948;2022-11-15T09:08:08;43.10;;;39.17;;
45274;SDS011;31019;43.780;25.948;2022-11-15T09:10:41;43.00;;;39.20;;
45274;SDS011;31019;43.780;25.948;2022-11-15T09:13:08;41.28;;;37.53;;
45274;SDS011;31019;43.780;25.948;2022-11-15T09:15:37;40.47;;;36.85;;
45274;SDS011;31019;43.780;25.948;2022-11-15T09:18:04;42.75;;;38.53;;
45274;SDS011;31019;43.780;25.948;2022-11-15T09:20:33;39.60;;;36.10;;
45274;SDS011;31019;43.780;25.948;2022-11-15T09:23:00;41.03;;;37.10;;
45274;SDS011;31019;43.780;25.948;2022-11-15T09:25:28;41.97;;;38.10;;
45274;SDS011;31019;43.780;25.948;2022-11-15T09:27:57;45.97;;;41.20;;
45274;SDS011;31019;43.780;25.948;2022-11-15T09:30:24;43.88;;;39.47;;
45274;SDS011;31019;43.780;25.948;2022-11-15T09:32:57;42.92;;;38.92;;
45274;SDS011;31019;43.780;25.948;2022-11-15T09:37:51;44.63;;;40.55;;
45274;SDS011;31019;43.780;25.948;2022-11-15T09:40:20;48.20;;;43.55;;
45274;SDS011;31019;43.780;25.948;2022-11-15T09:45:42;46.83;;;42.38;;
45274;SDS011;31019;43.780;25.948;2022-11-15T09:48:32;46.35;;;41.72;;
45274;SDS011;31019;43.780;25.948;2022-11-15T09:51:17;51.03;;;46.10;;
45274;SDS011;31019;43.780;25.948;2022-11-15T09:53:52;46.65;;;42.10;;
45274;SDS011;31019;43.780;25.948;2022-11-15T09:56:26;47.00;;;42.50;;
45274;SDS011;31019;43.780;25.948;2022-11-15T09:59:00;46.72;;;42.25;;
45274;SDS011;31019;43.780;25.948;2022-11-15T10:01:39;48.90;;;44.20;;
45274;SDS011;31019;43.780;25.948;2022-11-15T10:04:11;45.60;;;41.35;;
45274;SDS011;31019;43.780;25.948;2022-11-15T10:06:40;47.70;;;43.00;;
45274;SDS011;31019;43.780;25.948;2022-11-15T10:09:14;46.70;;;42.10;;
45274;SDS011;31019;43.780;25.948;2022-11-15T10:11:45;47.08;;;42.67;;
45274;SDS011;31019;43.780;25.948;2022-11-15T10:14:16;45.83;;;41.63;;
45274;SDS011;31019;43.780;25.948;2022-11-15T10:20:05;46.53;;;42.17;;
45274;SDS011;31019;43.780;25.948;2022-11-15T10:22:40;49.78;;;45.13;;
45274;SDS011;31019;43.780;25.948;2022-11-15T10:25:17;48.33;;;43.75;;
45274;SDS011;31019;43.780;25.948;2022-11-15T10:27:54;48.83;;;44.00;;
45274;SDS011;31019;43.780;25.948;2022-11-15T10:30:23;45.85;;;41.38;;
45274;SDS011;31019;43.780;25.948;2022-11-15T10:32:58;48.95;;;43.95;;
45274;SDS011;31019;43.780;25.948;2022-11-15T10:35:36;47.78;;;43.20;;
45274;SDS011;31019;43.780;25.948;2022-11-15T10:38:05;48.90;;;44.20;;
45274;SDS011;31019;43.780;25.948;2022-11-15T10:40:32;47.78;;;43.17;;
45274;SDS011;31019;43.780;25.948;2022-11-15T10:43:12;47.33;;;42.80;;
45274;SDS011;31019;43.780;25.948;2022-11-15T10:45:42;46.38;;;41.58;;
45274;SDS011;31019;43.780;25.948;2022-11-15T10:48:25;47.65;;;43.13;;
45274;SDS011;31019;43.780;25.948;2022-11-15T10:53:47;52.22;;;46.60;;
45274;SDS011;31019;43.780;25.948;2022-11-15T10:56:15;46.00;;;41.55;;
45274;SDS011;31019;43.780;25.948;2022-11-15T10:58:50;45.65;;;41.33;;
45274;SDS011;31019;43.780;25.948;2022-11-15T11:01:21;47.23;;;42.43;;
45274;SDS011;31019;43.780;25.948;2022-11-15T11:03:57;50.92;;;45.72;;
45274;SDS011;31019;43.780;25.948;2022-11-15T11:06:25;50.17;;;44.92;;
45274;SDS011;31019;43.780;25.948;2022-11-15T11:08:56;51.50;;;46.15;;
45274;SDS011;31019;43.780;25.948;2022-11-15T11:11:24;51.88;;;46.67;;
45274;SDS011;31019;43.780;25.948;2022-11-15T11:13:52;52.72;;;47.20;;
45274;SDS011;31019;43.780;25.948;2022-11-15T11:16:40;59.20;;;52.85;;
45274;SDS011;31019;43.780;25.948;2022-11-15T11:19:15;55.75;;;49.83;;
45274;SDS011;31019;43.780;25.948;2022-11-15T11:22:01;55.13;;;49.40;;
45274;SDS011;31019;43.780;25.948;2022-11-15T11:24:36;53.80;;;47.20;;
45274;SDS011;31019;43.780;25.948;2022-11-15T11:27:13;81.05;;;68.22;;
45274;SDS011;31019;43.780;25.948;2022-11-15T11:29:54;52.42;;;46.83;;
45274;SDS011;31019;43.780;25.948;2022-11-15T11:32:34;52.60;;;46.60;;
45274;SDS011;31019;43.780;25.948;2022-11-15T11:35:19;52.53;;;46.65;;
45274;SDS011;31019;43.780;25.948;2022-11-15T11:37:49;66.18;;;55.60;;
45274;SDS011;31019;43.780;25.948;2022-11-15T11:40:27;71.07;;;55.55;;
45274;SDS011;31019;43.780;25.948;2022-11-15T11:42:58;67.32;;;53.15;;
45274;SDS011;31019;43.780;25.948;2022-11-15T11:45:46;56.65;;;50.55;;
45274;SDS011;31019;43.780;25.948;2022-11-15T11:48:26;63.00;;;56.42;;
45274;SDS011;31019;43.780;25.948;2022-11-15T11:51:10;66.82;;;60.47;;
45274;SDS011;31019;43.780;25.948;2022-11-15T11:53:42;58.50;;;52.70;;
45274;SDS011;31019;43.780;25.948;2022-11-15T11:56:21;62.53;;;56.38;;
45274;SDS011;31019;43.780;25.948;2022-11-15T11:58:52;65.45;;;58.95;;
45274;SDS011;31019;43.780;25.948;2022-11-15T12:01:22;68.60;;;61.83;;
45274;SDS011;31019;43.780;25.948;2022-11-15T12:03:53;67.97;;;60.75;;
45274;SDS011;31019;43.780;25.948;2022-11-15T12:06:26;54.80;;;48.85;;
45274;SDS011;31019;43.780;25.948;2022-11-15T12:08:58;61.95;;;53.50;;
45274;SDS011;31019;43.780;25.948;2022-11-15T12:11:29;59.58;;;53.13;;
45274;SDS011;31019;43.780;25.948;2022-11-15T12:16:53;55.55;;;49.72;;
45274;SDS011;31019;43.780;25.948;2022-11-15T12:19:27;53.42;;;47.55;;
45274;SDS011;31019;43.780;25.948;2022-11-15T12:21:56;50.05;;;44.58;;
45274;SDS011;31019;43.780;25.948;2022-11-15T12:24:28;53.28;;;47.47;;
45274;SDS011;31019;43.780;25.948;2022-11-15T12:27:04;51.88;;;46.13;;
45274;SDS011;31019;43.780;25.948;2022-11-15T12:29:39;52.20;;;45.50;;
45274;SDS011;31019;43.780;25.948;2022-11-15T12:34:54;55.85;;;50.13;;
45274;SDS011;31019;43.780;25.948;2022-11-15T12:40:23;53.08;;;47.35;;
45274;SDS011;31019;43.780;25.948;2022-11-15T12:45:50;48.17;;;43.08;;
45274;SDS011;31019;43.780;25.948;2022-11-15T12:54:51;53.20;;;47.72;;
45274;SDS011;31019;43.780;25.948;2022-11-15T12:57:34;52.92;;;47.38;;
45274;SDS011;31019;43.780;25.948;2022-11-15T13:03:21;49.15;;;44.47;;
45274;SDS011;31019;43.780;25.948;2022-11-15T13:05:59;49.42;;;44.47;;
45274;SDS011;31019;43.780;25.948;2022-11-15T13:08:39;115.68;;;73.97;;
45274;SDS011;31019;43.780;25.948;2022-11-15T13:14:47;46.50;;;42.08;;
45274;SDS011;31019;43.780;25.948;2022-11-15T13:17:24;49.95;;;45.60;;
45274;SDS011;31019;43.780;25.948;2022-11-15T13:20:00;51.20;;;46.55;;
45274;SDS011;31019;43.780;25.948;2022-11-15T13:22:44;57.22;;;51.90;;
45274;SDS011;31019;43.780;25.948;2022-11-15T13:34:03;53.90;;;48.78;;
45274;SDS011;31019;43.780;25.948;2022-11-15T13:36:55;54.10;;;49.00;;
45274;SDS011;31019;43.780;25.948;2022-11-15T13:39:27;53.25;;;48.00;;
45274;SDS011;31019;43.780;25.948;2022-11-15T13:41:57;53.55;;;48.17;;
45274;SDS011;31019;43.780;25.948;2022-11-15T13:44:31;52.85;;;47.95;;
45274;SDS011;31019;43.780;25.948;2022-11-15T13:47:04;48.58;;;43.65;;
45274;SDS011;31019;43.780;25.948;2022-11-15T13:49:33;55.15;;;49.80;;
45274;SDS011;31019;43.780;25.948;2022-11-15T13:54:33;53.28;;;47.55;;
45274;SDS011;31019;43.780;25.948;2022-11-15T13:57:05;55.33;;;47.97;;
45274;SDS011;31019;43.780;25.948;2022-11-15T13:59:44;56.00;;;50.15;;
45274;SDS011;31019;43.780;25.948;2022-11-15T14:02:18;66.50;;;55.60;;
45274;SDS011;31019;43.780;25.948;2022-11-15T14:04:54;62.88;;;55.05;;
45274;SDS011;31019;43.780;25.948;2022-11-15T14:07:24;58.90;;;52.75;;
45274;SDS011;31019;43.780;25.948;2022-11-15T14:09:56;63.33;;;54.97;;
45274;SDS011;31019;43.780;25.948;2022-11-15T14:12:26;192.38;;;104.13;;
45274;SDS011;31019;43.780;25.948;2022-11-15T14:14:57;88.60;;;62.13;;
45274;SDS011;31019;43.780;25.948;2022-11-15T14:20:27;54.05;;;48.28;;
45274;SDS011;31019;43.780;25.948;2022-11-15T14:22:58;53.40;;;47.67;;
45274;SDS011;31019;43.780;25.948;2022-11-15T14:25:27;53.90;;;48.30;;
45274;SDS011;31019;43.780;25.948;2022-11-15T14:28:14;57.65;;;51.75;;
45274;SDS011;31019;43.780;25.948;2022-11-15T14:30:55;52.85;;;47.13;;
45274;SDS011;31019;43.780;25.948;2022-11-15T14:33:25;52.08;;;46.47;;
45274;SDS011;31019;43.780;25.948;2022-11-15T14:38:38;54.50;;;48.30;;
45274;SDS011;31019;43.780;25.948;2022-11-15T14:41:10;53.13;;;47.50;;
45274;SDS011;31019;43.780;25.948;2022-11-15T14:43:52;53.17;;;47.10;;
45274;SDS011;31019;43.780;25.948;2022-11-15T14:46:20;50.65;;;45.15;;
45274;SDS011;31019;43.780;25.948;2022-11-15T14:48:49;50.33;;;44.95;;
45274;SDS011;31019;43.780;25.948;2022-11-15T14:51:17;58.30;;;52.75;;
45274;SDS011;31019;43.780;25.948;2022-11-15T14:53:45;62.35;;;56.42;;
45274;SDS011;31019;43.780;25.948;2022-11-15T14:56:13;67.40;;;60.75;;
45274;SDS011;31019;43.780;25.948;2022-11-15T14:58:41;64.15;;;57.53;;
45274;SDS011;31019;43.780;25.948;2022-11-15T15:01:12;69.68;;;63.17;;
45274;SDS011;31019;43.780;25.948;2022-11-15T15:03:46;69.72;;;63.13;;
45274;SDS011;31019;43.780;25.948;2022-11-15T15:06:15;66.38;;;59.92;;
45274;SDS011;31019;43.780;25.948;2022-11-15T15:08:48;67.13;;;60.85;;
45274;SDS011;31019;43.780;25.948;2022-11-15T15:11:21;65.70;;;59.47;;
45274;SDS011;31019;43.780;25.948;2022-11-15T15:13:49;64.20;;;58.30;;
45274;SDS011;31019;43.780;25.948;2022-11-15T15:16:17;69.22;;;62.63;;
45274;SDS011;31019;43.780;25.948;2022-11-15T15:18:44;79.72;;;71.88;;
45274;SDS011;31019;43.780;25.948;2022-11-15T15:21:17;73.05;;;65.90;;
45274;SDS011;31019;43.780;25.948;2022-11-15T15:23:55;69.50;;;62.35;;
45274;SDS011;31019;43.780;25.948;2022-11-15T15:26:24;63.92;;;57.10;;
45274;SDS011;31019;43.780;25.948;2022-11-15T15:28:51;71.95;;;64.05;;
45274;SDS011;31019;43.780;25.948;2022-11-15T15:31:17;71.95;;;64.00;;
45274;SDS011;31019;43.780;25.948;2022-11-15T15:33:46;59.85;;;53.25;;